sensor_id;sensor_type;location;lat;lon;timestamp;temperature;humidity
39751;DHT22;37579;51.074;17.004;2023-07-31T00:01:16;25.00;59.30
39751;DHT22;37579;51.074;17.004;2023-07-31T00:03:41;25.00;59.10
39751;DHT22;37579;51.074;17.004;2023-07-31T00:06:07;25.00;59.00
39751;DHT22;37579;51.074;17.004;2023-07-31T00:08:33;25.00;59.60
39751;DHT22;37579;51.074;17.004;2023-07-31T00:10:59;25.00;58.90
39751;DHT22;37579;51.074;17.004;2023-07-31T00:13:24;25.00;58.90
39751;DHT22;37579;51.074;17.004;2023-07-31T00:15:50;24.90;58.70
39751;DHT22;37579;51.074;17.004;2023-07-31T00:18:16;24.90;58.60
39751;DHT22;37579;51.074;17.004;2023-07-31T00:20:42;24.90;58.70
39751;DHT22;37579;51.074;17.004;2023-07-31T00:23:07;24.90;58.60
39751;DHT22;37579;51.074;17.004;2023-07-31T00:25:33;24.90;58.50
39751;DHT22;37579;51.074;17.004;2023-07-31T00:27:59;24.90;58.50
39751;DHT22;37579;51.074;17.004;2023-07-31T00:30:25;24.90;58.40
39751;DHT22;37579;51.074;17.004;2023-07-31T00:32:53;25.00;58.40
39751;DHT22;37579;51.074;17.004;2023-07-31T00:35:19;24.90;58.10
39751;DHT22;37579;51.074;17.004;2023-07-31T00:37:44;24.90;58.00
39751;DHT22;37579;51.074;17.004;2023-07-31T00:40:11;24.90;57.90
39751;DHT22;37579;51.074;17.004;2023-07-31T00:42:37;24.90;57.60
39751;DHT22;37579;51.074;17.004;2023-07-31T00:45:03;24.90;57.70
39751;DHT22;37579;51.074;17.004;2023-07-31T00:47:30;24.90;57.60
39751;DHT22;37579;51.074;17.004;2023-07-31T00:49:55;24.90;57.50
39751;DHT22;37579;51.074;17.004;2023-07-31T00:52:22;24.90;57.60
39751;DHT22;37579;51.074;17.004;2023-07-31T00:54:49;24.80;57.50
39751;DHT22;37579;51.074;17.004;2023-07-31T00:57:15;24.80;57.40
39751;DHT22;37579;51.074;17.004;2023-07-31T00:59:41;24.80;57.30
39751;DHT22;37579;51.074;17.004;2023-07-31T01:02:07;24.90;57.40
39751;DHT22;37579;51.074;17.004;2023-07-31T01:04:33;24.80;57.30
39751;DHT22;37579;51.074;17.004;2023-07-31T01:07:21;24.80;57.30
39751;DHT22;37579;51.074;17.004;2023-07-31T01:12:36;24.80;57.30
39751;DHT22;37579;51.074;17.004;2023-07-31T01:15:07;24.80;57.30
39751;DHT22;37579;51.074;17.004;2023-07-31T01:17:37;24.80;57.30
39751;DHT22;37579;51.074;17.004;2023-07-31T01:26:04;24.80;57.20
39751;DHT22;37579;51.074;17.004;2023-07-31T01:28:55;24.80;57.30
39751;DHT22;37579;51.074;17.004;2023-07-31T01:31:25;24.70;57.20
39751;DHT22;37579;51.074;17.004;2023-07-31T01:33:58;24.70;57.30
39751;DHT22;37579;51.074;17.004;2023-07-31T01:36:25;24.80;57.30
39751;DHT22;37579;51.074;17.004;2023-07-31T01:38:51;24.80;57.10
39751;DHT22;37579;51.074;17.004;2023-07-31T01:41:17;24.80;56.90
39751;DHT22;37579;51.074;17.004;2023-07-31T01:43:45;24.80;57.00
39751;DHT22;37579;51.074;17.004;2023-07-31T01:46:11;24.80;56.80
39751;DHT22;37579;51.074;17.004;2023-07-31T01:48:37;24.80;56.80
39751;DHT22;37579;51.074;17.004;2023-07-31T01:51:03;24.70;56.80
39751;DHT22;37579;51.074;17.004;2023-07-31T01:53:30;24.70;56.80
39751;DHT22;37579;51.074;17.004;2023-07-31T01:55:56;24.70;56.90
39751;DHT22;37579;51.074;17.004;2023-07-31T01:58:22;24.70;56.80
39751;DHT22;37579;51.074;17.004;2023-07-31T02:00:48;24.70;56.70
39751;DHT22;37579;51.074;17.004;2023-07-31T02:03:14;24.70;56.50
39751;DHT22;37579;51.074;17.004;2023-07-31T02:05:46;24.70;56.40
39751;DHT22;37579;51.074;17.004;2023-07-31T02:08:13;24.70;56.30
39751;DHT22;37579;51.074;17.004;2023-07-31T02:10:39;24.70;56.30
39751;DHT22;37579;51.074;17.004;2023-07-31T02:13:05;24.60;56.30
39751;DHT22;37579;51.074;17.004;2023-07-31T02:15:31;24.70;56.30
39751;DHT22;37579;51.074;17.004;2023-07-31T02:17:57;24.70;56.30
39751;DHT22;37579;51.074;17.004;2023-07-31T02:20:24;24.70;56.30
39751;DHT22;37579;51.074;17.004;2023-07-31T02:22:50;24.70;56.10
39751;DHT22;37579;51.074;17.004;2023-07-31T02:25:16;24.70;56.30
39751;DHT22;37579;51.074;17.004;2023-07-31T02:27:44;24.70;56.30
39751;DHT22;37579;51.074;17.004;2023-07-31T02:30:11;24.70;56.30
39751;DHT22;37579;51.074;17.004;2023-07-31T02:32:36;24.60;56.40
39751;DHT22;37579;51.074;17.004;2023-07-31T02:35:02;24.60;56.60
39751;DHT22;37579;51.074;17.004;2023-07-31T02:37:28;24.60;56.40
39751;DHT22;37579;51.074;17.004;2023-07-31T02:39:55;24.60;56.40
39751;DHT22;37579;51.074;17.004;2023-07-31T02:42:21;24.60;56.40
39751;DHT22;37579;51.074;17.004;2023-07-31T02:44:47;24.60;56.30
39751;DHT22;37579;51.074;17.004;2023-07-31T02:47:12;24.60;56.10
39751;DHT22;37579;51.074;17.004;2023-07-31T02:49:38;24.60;56.10
39751;DHT22;37579;51.074;17.004;2023-07-31T02:52:04;24.60;56.10
39751;DHT22;37579;51.074;17.004;2023-07-31T02:54:30;24.60;56.00
39751;DHT22;37579;51.074;17.004;2023-07-31T02:56:56;24.60;56.00
39751;DHT22;37579;51.074;17.004;2023-07-31T02:59:21;24.60;56.00
39751;DHT22;37579;51.074;17.004;2023-07-31T03:01:47;24.60;55.90
39751;DHT22;37579;51.074;17.004;2023-07-31T03:04:13;24.60;55.90
39751;DHT22;37579;51.074;17.004;2023-07-31T03:06:39;24.60;55.80
39751;DHT22;37579;51.074;17.004;2023-07-31T03:09:05;24.60;55.70
39751;DHT22;37579;51.074;17.004;2023-07-31T03:11:31;24.60;55.50
39751;DHT22;37579;51.074;17.004;2023-07-31T03:13:57;24.60;55.30
39751;DHT22;37579;51.074;17.004;2023-07-31T03:16:23;24.60;55.20
39751;DHT22;37579;51.074;17.004;2023-07-31T03:18:48;24.60;55.20
39751;DHT22;37579;51.074;17.004;2023-07-31T03:21:14;24.60;55.30
39751;DHT22;37579;51.074;17.004;2023-07-31T03:23:40;24.50;55.20
39751;DHT22;37579;51.074;17.004;2023-07-31T03:26:07;24.50;55.10
39751;DHT22;37579;51.074;17.004;2023-07-31T03:28:33;24.50;55.10
39751;DHT22;37579;51.074;17.004;2023-07-31T03:30:59;24.50;55.00
39751;DHT22;37579;51.074;17.004;2023-07-31T03:33:25;24.50;54.90
39751;DHT22;37579;51.074;17.004;2023-07-31T03:35:52;24.50;54.90
39751;DHT22;37579;51.074;17.004;2023-07-31T03:38:18;24.50;54.80
39751;DHT22;37579;51.074;17.004;2023-07-31T03:40:44;24.50;54.70
39751;DHT22;37579;51.074;17.004;2023-07-31T03:43:10;24.50;54.70
39751;DHT22;37579;51.074;17.004;2023-07-31T03:45:37;24.50;54.70
39751;DHT22;37579;51.074;17.004;2023-07-31T03:48:03;24.50;54.70
39751;DHT22;37579;51.074;17.004;2023-07-31T03:50:30;24.50;54.60
39751;DHT22;37579;51.074;17.004;2023-07-31T03:52:56;24.50;54.50
39751;DHT22;37579;51.074;17.004;2023-07-31T03:55:21;24.50;54.50
39751;DHT22;37579;51.074;17.004;2023-07-31T03:57:47;24.40;54.40
39751;DHT22;37579;51.074;17.004;2023-07-31T04:00:14;24.50;54.40
39751;DHT22;37579;51.074;17.004;2023-07-31T04:02:40;24.40;54.30
39751;DHT22;37579;51.074;17.004;2023-07-31T04:05:07;24.40;54.20
39751;DHT22;37579;51.074;17.004;2023-07-31T04:07:33;24.40;54.20
39751;DHT22;37579;51.074;17.004;2023-07-31T04:09:59;24.40;54.10
39751;DHT22;37579;51.074;17.004;2023-07-31T04:12:25;24.40;54.20
39751;DHT22;37579;51.074;17.004;2023-07-31T04:14:51;24.40;54.10
39751;DHT22;37579;51.074;17.004;2023-07-31T04:17:19;24.40;54.10
39751;DHT22;37579;51.074;17.004;2023-07-31T04:19:45;24.40;54.10
39751;DHT22;37579;51.074;17.004;2023-07-31T04:22:11;24.40;54.10
39751;DHT22;37579;51.074;17.004;2023-07-31T04:24:36;24.40;54.10
39751;DHT22;37579;51.074;17.004;2023-07-31T04:27:02;24.40;54.10
39751;DHT22;37579;51.074;17.004;2023-07-31T04:29:28;24.40;54.10
39751;DHT22;37579;51.074;17.004;2023-07-31T04:31:54;24.40;54.10
39751;DHT22;37579;51.074;17.004;2023-07-31T04:34:20;24.40;54.00
39751;DHT22;37579;51.074;17.004;2023-07-31T04:36:45;24.40;53.90
39751;DHT22;37579;51.074;17.004;2023-07-31T04:39:11;24.40;53.80
39751;DHT22;37579;51.074;17.004;2023-07-31T04:41:37;24.40;53.90
39751;DHT22;37579;51.074;17.004;2023-07-31T04:44:03;24.40;53.90
39751;DHT22;37579;51.074;17.004;2023-07-31T04:46:31;24.50;53.90
39751;DHT22;37579;51.074;17.004;2023-07-31T04:48:57;24.50;53.80
39751;DHT22;37579;51.074;17.004;2023-07-31T04:51:23;24.50;53.70
39751;DHT22;37579;51.074;17.004;2023-07-31T04:53:49;24.50;53.70
39751;DHT22;37579;51.074;17.004;2023-07-31T04:56:15;24.50;53.90
39751;DHT22;37579;51.074;17.004;2023-07-31T04:58:41;24.50;53.70
39751;DHT22;37579;51.074;17.004;2023-07-31T05:01:07;24.50;53.60
39751;DHT22;37579;51.074;17.004;2023-07-31T05:03:33;24.50;53.70
39751;DHT22;37579;51.074;17.004;2023-07-31T05:05:59;24.50;53.50
39751;DHT22;37579;51.074;17.004;2023-07-31T05:08:24;24.50;53.40
39751;DHT22;37579;51.074;17.004;2023-07-31T05:10:50;24.60;53.40
39751;DHT22;37579;51.074;17.004;2023-07-31T05:13:16;24.60;53.20
39751;DHT22;37579;51.074;17.004;2023-07-31T05:15:42;24.60;53.20
39751;DHT22;37579;51.074;17.004;2023-07-31T05:18:07;24.70;53.20
39751;DHT22;37579;51.074;17.004;2023-07-31T05:20:33;24.70;53.10
39751;DHT22;37579;51.074;17.004;2023-07-31T05:22:59;24.70;52.90
39751;DHT22;37579;51.074;17.004;2023-07-31T05:25:25;24.70;53.00
39751;DHT22;37579;51.074;17.004;2023-07-31T05:27:50;24.70;53.10
39751;DHT22;37579;51.074;17.004;2023-07-31T05:30:16;24.70;53.20
39751;DHT22;37579;51.074;17.004;2023-07-31T05:32:42;24.70;52.80
39751;DHT22;37579;51.074;17.004;2023-07-31T05:35:08;24.70;52.80
39751;DHT22;37579;51.074;17.004;2023-07-31T05:37:34;24.70;53.50
39751;DHT22;37579;51.074;17.004;2023-07-31T05:40:00;24.70;52.80
39751;DHT22;37579;51.074;17.004;2023-07-31T05:42:26;24.80;52.60
39751;DHT22;37579;51.074;17.004;2023-07-31T05:44:52;24.70;52.30
39751;DHT22;37579;51.074;17.004;2023-07-31T05:47:17;24.80;52.40
39751;DHT22;37579;51.074;17.004;2023-07-31T05:49:43;24.80;52.20
39751;DHT22;37579;51.074;17.004;2023-07-31T05:52:09;24.80;51.80
39751;DHT22;37579;51.074;17.004;2023-07-31T05:54:35;24.80;51.60
39751;DHT22;37579;51.074;17.004;2023-07-31T05:57:01;24.80;51.70
39751;DHT22;37579;51.074;17.004;2023-07-31T05:59:27;24.80;51.60
39751;DHT22;37579;51.074;17.004;2023-07-31T06:01:53;24.80;51.50
39751;DHT22;37579;51.074;17.004;2023-07-31T06:04:19;24.80;51.30
39751;DHT22;37579;51.074;17.004;2023-07-31T06:06:44;24.90;51.80
39751;DHT22;37579;51.074;17.004;2023-07-31T06:09:10;24.90;51.50
39751;DHT22;37579;51.074;17.004;2023-07-31T06:11:37;24.90;51.30
39751;DHT22;37579;51.074;17.004;2023-07-31T06:14:03;24.90;51.40
39751;DHT22;37579;51.074;17.004;2023-07-31T06:16:28;24.90;51.50
39751;DHT22;37579;51.074;17.004;2023-07-31T06:18:54;24.90;51.60
39751;DHT22;37579;51.074;17.004;2023-07-31T06:21:20;24.90;52.00
39751;DHT22;37579;51.074;17.004;2023-07-31T06:23:45;24.90;52.40
39751;DHT22;37579;51.074;17.004;2023-07-31T06:26:11;24.80;52.60
39751;DHT22;37579;51.074;17.004;2023-07-31T06:28:37;24.80;52.80
39751;DHT22;37579;51.074;17.004;2023-07-31T06:31:03;24.80;53.00
39751;DHT22;37579;51.074;17.004;2023-07-31T06:33:29;24.80;53.20
39751;DHT22;37579;51.074;17.004;2023-07-31T06:35:55;24.80;53.20
39751;DHT22;37579;51.074;17.004;2023-07-31T06:38:25;24.80;53.30
39751;DHT22;37579;51.074;17.004;2023-07-31T06:40:51;24.80;53.50
39751;DHT22;37579;51.074;17.004;2023-07-31T06:43:16;24.80;53.70
39751;DHT22;37579;51.074;17.004;2023-07-31T06:45:42;24.80;53.80
39751;DHT22;37579;51.074;17.004;2023-07-31T06:48:08;24.80;54.00
39751;DHT22;37579;51.074;17.004;2023-07-31T06:50:34;24.80;54.30
39751;DHT22;37579;51.074;17.004;2023-07-31T06:53:00;24.80;54.00
39751;DHT22;37579;51.074;17.004;2023-07-31T06:55:26;24.90;54.10
39751;DHT22;37579;51.074;17.004;2023-07-31T06:57:53;24.90;54.20
39751;DHT22;37579;51.074;17.004;2023-07-31T07:00:21;24.90;54.30
39751;DHT22;37579;51.074;17.004;2023-07-31T07:02:47;24.90;54.30
39751;DHT22;37579;51.074;17.004;2023-07-31T07:05:13;24.90;54.20
39751;DHT22;37579;51.074;17.004;2023-07-31T07:07:40;24.90;54.00
39751;DHT22;37579;51.074;17.004;2023-07-31T07:10:06;24.80;54.10
39751;DHT22;37579;51.074;17.004;2023-07-31T07:12:33;24.80;53.80
39751;DHT22;37579;51.074;17.004;2023-07-31T07:14:59;24.80;54.10
39751;DHT22;37579;51.074;17.004;2023-07-31T07:17:26;24.80;54.00
39751;DHT22;37579;51.074;17.004;2023-07-31T07:19:53;24.80;54.20
39751;DHT22;37579;51.074;17.004;2023-07-31T07:22:18;24.90;54.10
39751;DHT22;37579;51.074;17.004;2023-07-31T07:24:44;24.80;54.20
39751;DHT22;37579;51.074;17.004;2023-07-31T07:27:10;24.90;53.90
39751;DHT22;37579;51.074;17.004;2023-07-31T07:29:37;24.80;54.70
39751;DHT22;37579;51.074;17.004;2023-07-31T07:32:04;24.60;54.30
39751;DHT22;37579;51.074;17.004;2023-07-31T07:34:29;24.60;54.70
39751;DHT22;37579;51.074;17.004;2023-07-31T07:36:55;24.50;54.70
39751;DHT22;37579;51.074;17.004;2023-07-31T07:39:21;24.60;54.80
39751;DHT22;37579;51.074;17.004;2023-07-31T07:41:47;24.60;54.80
39751;DHT22;37579;51.074;17.004;2023-07-31T07:44:14;24.50;54.70
39751;DHT22;37579;51.074;17.004;2023-07-31T07:46:40;24.50;54.70
39751;DHT22;37579;51.074;17.004;2023-07-31T07:49:06;24.50;54.60
39751;DHT22;37579;51.074;17.004;2023-07-31T07:51:32;24.60;54.30
39751;DHT22;37579;51.074;17.004;2023-07-31T07:53:58;24.70;54.20
39751;DHT22;37579;51.074;17.004;2023-07-31T07:56:26;24.90;53.80
39751;DHT22;37579;51.074;17.004;2023-07-31T07:58:52;25.10;53.70
39751;DHT22;37579;51.074;17.004;2023-07-31T08:01:18;25.20;53.20
39751;DHT22;37579;51.074;17.004;2023-07-31T08:03:44;25.20;53.10
39751;DHT22;37579;51.074;17.004;2023-07-31T08:06:10;25.20;52.80
39751;DHT22;37579;51.074;17.004;2023-07-31T08:08:36;25.20;53.00
39751;DHT22;37579;51.074;17.004;2023-07-31T08:11:02;25.30;53.20
39751;DHT22;37579;51.074;17.004;2023-07-31T08:13:28;25.30;53.30
39751;DHT22;37579;51.074;17.004;2023-07-31T08:15:54;25.30;53.20
39751;DHT22;37579;51.074;17.004;2023-07-31T08:18:20;25.40;52.30
39751;DHT22;37579;51.074;17.004;2023-07-31T08:20:46;25.30;52.10
39751;DHT22;37579;51.074;17.004;2023-07-31T08:23:12;25.40;52.20
39751;DHT22;37579;51.074;17.004;2023-07-31T08:25:38;25.50;51.80
39751;DHT22;37579;51.074;17.004;2023-07-31T08:28:04;25.50;51.80
39751;DHT22;37579;51.074;17.004;2023-07-31T08:30:30;25.70;51.60
39751;DHT22;37579;51.074;17.004;2023-07-31T08:32:56;25.80;51.50
39751;DHT22;37579;51.074;17.004;2023-07-31T08:35:22;25.90;51.50
39751;DHT22;37579;51.074;17.004;2023-07-31T08:37:47;26.00;51.60
39751;DHT22;37579;51.074;17.004;2023-07-31T08:40:13;26.10;51.60
39751;DHT22;37579;51.074;17.004;2023-07-31T08:42:49;26.10;51.30
39751;DHT22;37579;51.074;17.004;2023-07-31T08:45:17;26.10;51.00
39751;DHT22;37579;51.074;17.004;2023-07-31T08:47:51;26.10;51.00
39751;DHT22;37579;51.074;17.004;2023-07-31T08:50:19;26.10;51.30
39751;DHT22;37579;51.074;17.004;2023-07-31T08:52:50;26.10;50.50
39751;DHT22;37579;51.074;17.004;2023-07-31T08:55:16;26.10;51.40
39751;DHT22;37579;51.074;17.004;2023-07-31T08:57:43;26.10;50.50
39751;DHT22;37579;51.074;17.004;2023-07-31T09:00:10;26.10;50.30
39751;DHT22;37579;51.074;17.004;2023-07-31T09:03:02;26.10;50.10
39751;DHT22;37579;51.074;17.004;2023-07-31T09:05:30;26.20;50.60
39751;DHT22;37579;51.074;17.004;2023-07-31T09:07:57;26.20;50.20
39751;DHT22;37579;51.074;17.004;2023-07-31T09:10:23;26.10;50.60
39751;DHT22;37579;51.074;17.004;2023-07-31T09:12:51;26.10;50.20
39751;DHT22;37579;51.074;17.004;2023-07-31T09:15:17;26.10;49.90
39751;DHT22;37579;51.074;17.004;2023-07-31T09:17:43;26.10;49.60
39751;DHT22;37579;51.074;17.004;2023-07-31T09:20:16;26.10;50.30
39751;DHT22;37579;51.074;17.004;2023-07-31T09:22:43;26.20;50.30
39751;DHT22;37579;51.074;17.004;2023-07-31T09:25:17;26.20;50.20
39751;DHT22;37579;51.074;17.004;2023-07-31T09:27:52;26.20;50.10
39751;DHT22;37579;51.074;17.004;2023-07-31T09:30:18;26.20;50.30
39751;DHT22;37579;51.074;17.004;2023-07-31T09:32:45;26.20;49.90
39751;DHT22;37579;51.074;17.004;2023-07-31T09:37:49;26.20;50.10
39751;DHT22;37579;51.074;17.004;2023-07-31T09:40:25;26.20;50.50
39751;DHT22;37579;51.074;17.004;2023-07-31T09:42:51;26.10;49.80
39751;DHT22;37579;51.074;17.004;2023-07-31T09:45:18;26.10;49.90
39751;DHT22;37579;51.074;17.004;2023-07-31T09:47:48;26.10;49.60
39751;DHT22;37579;51.074;17.004;2023-07-31T09:50:17;26.10;49.40
39751;DHT22;37579;51.074;17.004;2023-07-31T09:52:43;26.10;49.70
39751;DHT22;37579;51.074;17.004;2023-07-31T09:55:09;26.10;49.60
39751;DHT22;37579;51.074;17.004;2023-07-31T09:57:40;26.10;49.40
39751;DHT22;37579;51.074;17.004;2023-07-31T10:00:10;26.10;49.50
39751;DHT22;37579;51.074;17.004;2023-07-31T10:02:40;26.10;49.60
39751;DHT22;37579;51.074;17.004;2023-07-31T10:05:07;26.10;49.90
39751;DHT22;37579;51.074;17.004;2023-07-31T10:07:45;26.10;50.00
39751;DHT22;37579;51.074;17.004;2023-07-31T10:10:15;26.10;49.90
39751;DHT22;37579;51.074;17.004;2023-07-31T10:12:42;26.10;50.30
39751;DHT22;37579;51.074;17.004;2023-07-31T10:15:09;26.00;49.90
39751;DHT22;37579;51.074;17.004;2023-07-31T10:17:36;26.10;49.50
39751;DHT22;37579;51.074;17.004;2023-07-31T10:20:03;26.10;49.70
39751;DHT22;37579;51.074;17.004;2023-07-31T10:22:31;26.00;49.90
39751;DHT22;37579;51.074;17.004;2023-07-31T10:25:01;26.00;49.80
39751;DHT22;37579;51.074;17.004;2023-07-31T10:27:27;26.10;49.90
39751;DHT22;37579;51.074;17.004;2023-07-31T10:29:55;26.10;49.70
39751;DHT22;37579;51.074;17.004;2023-07-31T10:32:21;26.10;49.80
39751;DHT22;37579;51.074;17.004;2023-07-31T10:34:49;26.10;49.90
39751;DHT22;37579;51.074;17.004;2023-07-31T10:37:23;26.10;49.90
39751;DHT22;37579;51.074;17.004;2023-07-31T10:42:27;26.10;50.20
39751;DHT22;37579;51.074;17.004;2023-07-31T10:44:59;26.10;50.30
39751;DHT22;37579;51.074;17.004;2023-07-31T10:47:25;26.10;50.70
39751;DHT22;37579;51.074;17.004;2023-07-31T10:49:51;26.10;50.50
39751;DHT22;37579;51.074;17.004;2023-07-31T10:52:21;26.10;50.70
39751;DHT22;37579;51.074;17.004;2023-07-31T10:55:53;26.10;50.80
39751;DHT22;37579;51.074;17.004;2023-07-31T10:58:11;26.10;50.70
39751;DHT22;37579;51.074;17.004;2023-07-31T11:00:38;26.20;50.70
39751;DHT22;37579;51.074;17.004;2023-07-31T11:03:06;26.20;50.70
39751;DHT22;37579;51.074;17.004;2023-07-31T11:05:53;26.20;50.80
39751;DHT22;37579;51.074;17.004;2023-07-31T11:08:26;26.20;50.70
39751;DHT22;37579;51.074;17.004;2023-07-31T11:14:00;26.20;51.20
39751;DHT22;37579;51.074;17.004;2023-07-31T11:16:24;26.20;51.20
39751;DHT22;37579;51.074;17.004;2023-07-31T11:18:51;26.20;51.10
39751;DHT22;37579;51.074;17.004;2023-07-31T11:21:19;26.30;51.30
39751;DHT22;37579;51.074;17.004;2023-07-31T11:23:50;26.30;51.20
39751;DHT22;37579;51.074;17.004;2023-07-31T11:26:17;26.20;51.30
39751;DHT22;37579;51.074;17.004;2023-07-31T11:28:46;26.20;51.60
39751;DHT22;37579;51.074;17.004;2023-07-31T11:31:11;26.20;51.50
39751;DHT22;37579;51.074;17.004;2023-07-31T11:33:37;26.20;51.50
39751;DHT22;37579;51.074;17.004;2023-07-31T11:36:03;26.20;51.60
39751;DHT22;37579;51.074;17.004;2023-07-31T11:38:33;26.20;51.70
39751;DHT22;37579;51.074;17.004;2023-07-31T11:41:01;26.20;51.70
39751;DHT22;37579;51.074;17.004;2023-07-31T11:43:33;26.20;51.70
39751;DHT22;37579;51.074;17.004;2023-07-31T11:46:00;26.30;51.80
39751;DHT22;37579;51.074;17.004;2023-07-31T11:48:34;26.20;51.80
39751;DHT22;37579;51.074;17.004;2023-07-31T11:51:06;26.30;51.80
39751;DHT22;37579;51.074;17.004;2023-07-31T11:53:40;26.20;51.80
39751;DHT22;37579;51.074;17.004;2023-07-31T11:56:10;26.20;52.00
39751;DHT22;37579;51.074;17.004;2023-07-31T11:58:37;26.20;51.90
39751;DHT22;37579;51.074;17.004;2023-07-31T12:01:04;26.20;51.80
39751;DHT22;37579;51.074;17.004;2023-07-31T12:03:31;26.30;51.90
39751;DHT22;37579;51.074;17.004;2023-07-31T12:05:58;26.30;51.90
39751;DHT22;37579;51.074;17.004;2023-07-31T12:08:25;26.30;51.90
39751;DHT22;37579;51.074;17.004;2023-07-31T12:10:54;26.30;52.00
39751;DHT22;37579;51.074;17.004;2023-07-31T12:13:25;26.30;52.00
39751;DHT22;37579;51.074;17.004;2023-07-31T12:15:59;26.30;51.90
39751;DHT22;37579;51.074;17.004;2023-07-31T12:18:27;26.30;52.70
39751;DHT22;37579;51.074;17.004;2023-07-31T12:21:00;26.30;52.10
39751;DHT22;37579;51.074;17.004;2023-07-31T12:23:31;26.30;52.00
39751;DHT22;37579;51.074;17.004;2023-07-31T12:26:22;26.30;52.00
39751;DHT22;37579;51.074;17.004;2023-07-31T12:28:50;26.30;52.00
39751;DHT22;37579;51.074;17.004;2023-07-31T12:31:21;26.30;52.10
39751;DHT22;37579;51.074;17.004;2023-07-31T12:33:49;26.30;51.90
39751;DHT22;37579;51.074;17.004;2023-07-31T12:36:17;26.30;51.90
39751;DHT22;37579;51.074;17.004;2023-07-31T12:38:43;26.30;52.00
39751;DHT22;37579;51.074;17.004;2023-07-31T12:41:09;26.30;52.00
39751;DHT22;37579;51.074;17.004;2023-07-31T12:43:36;26.30;52.00
39751;DHT22;37579;51.074;17.004;2023-07-31T12:46:03;26.30;52.10
39751;DHT22;37579;51.074;17.004;2023-07-31T12:48:29;26.30;52.10
39751;DHT22;37579;51.074;17.004;2023-07-31T12:50:55;26.30;52.20
39751;DHT22;37579;51.074;17.004;2023-07-31T12:53:21;26.30;52.10
39751;DHT22;37579;51.074;17.004;2023-07-31T12:55:47;26.30;52.10
39751;DHT22;37579;51.074;17.004;2023-07-31T12:58:12;26.30;52.20
39751;DHT22;37579;51.074;17.004;2023-07-31T13:00:38;26.30;52.20
39751;DHT22;37579;51.074;17.004;2023-07-31T13:03:04;26.30;52.10
39751;DHT22;37579;51.074;17.004;2023-07-31T13:05:30;26.40;52.40
39751;DHT22;37579;51.074;17.004;2023-07-31T13:07:56;26.40;52.60
39751;DHT22;37579;51.074;17.004;2023-07-31T13:10:24;26.40;52.60
39751;DHT22;37579;51.074;17.004;2023-07-31T13:12:52;26.40;52.60
39751;DHT22;37579;51.074;17.004;2023-07-31T13:15:18;26.40;52.60
39751;DHT22;37579;51.074;17.004;2023-07-31T13:17:44;26.40;52.70
39751;DHT22;37579;51.074;17.004;2023-07-31T13:20:10;26.30;52.80
39751;DHT22;37579;51.074;17.004;2023-07-31T13:22:36;26.40;52.70
39751;DHT22;37579;51.074;17.004;2023-07-31T13:25:01;26.40;52.70
39751;DHT22;37579;51.074;17.004;2023-07-31T13:27:28;26.40;53.00
39751;DHT22;37579;51.074;17.004;2023-07-31T13:29:54;26.40;52.90
39751;DHT22;37579;51.074;17.004;2023-07-31T13:32:20;26.40;52.90
39751;DHT22;37579;51.074;17.004;2023-07-31T13:34:47;26.40;52.90
39751;DHT22;37579;51.074;17.004;2023-07-31T13:37:13;26.40;52.90
39751;DHT22;37579;51.074;17.004;2023-07-31T13:39:39;26.40;53.00
39751;DHT22;37579;51.074;17.004;2023-07-31T13:42:07;26.40;53.10
39751;DHT22;37579;51.074;17.004;2023-07-31T13:44:36;26.40;53.40
39751;DHT22;37579;51.074;17.004;2023-07-31T13:47:02;26.40;53.50
39751;DHT22;37579;51.074;17.004;2023-07-31T13:49:29;26.40;53.70
39751;DHT22;37579;51.074;17.004;2023-07-31T13:51:55;26.40;54.00
39751;DHT22;37579;51.074;17.004;2023-07-31T13:54:22;26.40;54.70
39751;DHT22;37579;51.074;17.004;2023-07-31T13:56:48;26.40;54.70
39751;DHT22;37579;51.074;17.004;2023-07-31T13:59:14;26.40;54.70
39751;DHT22;37579;51.074;17.004;2023-07-31T14:01:44;26.40;54.60
39751;DHT22;37579;51.074;17.004;2023-07-31T14:04:09;26.40;54.60
39751;DHT22;37579;51.074;17.004;2023-07-31T14:06:35;26.40;54.60
39751;DHT22;37579;51.074;17.004;2023-07-31T14:09:01;26.40;54.20
39751;DHT22;37579;51.074;17.004;2023-07-31T14:11:28;26.40;54.30
39751;DHT22;37579;51.074;17.004;2023-07-31T14:13:54;26.50;54.20
39751;DHT22;37579;51.074;17.004;2023-07-31T14:16:21;26.50;54.30
39751;DHT22;37579;51.074;17.004;2023-07-31T14:18:47;26.50;54.30
39751;DHT22;37579;51.074;17.004;2023-07-31T14:21:13;26.40;54.50
39751;DHT22;37579;51.074;17.004;2023-07-31T14:23:40;26.40;54.30
39751;DHT22;37579;51.074;17.004;2023-07-31T14:26:06;26.50;54.30
39751;DHT22;37579;51.074;17.004;2023-07-31T14:28:31;26.50;54.30
39751;DHT22;37579;51.074;17.004;2023-07-31T14:30:58;26.40;54.40
39751;DHT22;37579;51.074;17.004;2023-07-31T14:33:23;26.50;54.40
39751;DHT22;37579;51.074;17.004;2023-07-31T14:35:49;26.40;54.40
39751;DHT22;37579;51.074;17.004;2023-07-31T14:38:15;26.40;54.50
39751;DHT22;37579;51.074;17.004;2023-07-31T14:40:41;26.50;54.40
39751;DHT22;37579;51.074;17.004;2023-07-31T14:43:07;26.50;54.40
39751;DHT22;37579;51.074;17.004;2023-07-31T14:45:33;26.50;54.40
39751;DHT22;37579;51.074;17.004;2023-07-31T14:47:59;26.40;54.40
39751;DHT22;37579;51.074;17.004;2023-07-31T14:50:25;26.50;54.40
39751;DHT22;37579;51.074;17.004;2023-07-31T14:52:51;26.50;54.40
39751;DHT22;37579;51.074;17.004;2023-07-31T14:55:18;26.40;54.30
39751;DHT22;37579;51.074;17.004;2023-07-31T14:57:44;26.40;54.30
39751;DHT22;37579;51.074;17.004;2023-07-31T15:00:10;26.50;54.40
39751;DHT22;37579;51.074;17.004;2023-07-31T15:02:39;26.50;54.40
39751;DHT22;37579;51.074;17.004;2023-07-31T15:05:05;26.40;54.40
39751;DHT22;37579;51.074;17.004;2023-07-31T15:07:32;26.40;54.50
39751;DHT22;37579;51.074;17.004;2023-07-31T15:09:58;26.40;54.70
39751;DHT22;37579;51.074;17.004;2023-07-31T15:12:24;26.40;53.40
39751;DHT22;37579;51.074;17.004;2023-07-31T15:14:50;26.40;53.30
39751;DHT22;37579;51.074;17.004;2023-07-31T15:17:17;26.40;54.20
39751;DHT22;37579;51.074;17.004;2023-07-31T15:19:43;26.50;52.30
39751;DHT22;37579;51.074;17.004;2023-07-31T15:22:09;26.40;51.70
39751;DHT22;37579;51.074;17.004;2023-07-31T15:24:34;26.40;51.10
39751;DHT22;37579;51.074;17.004;2023-07-31T15:27:00;26.40;50.30
39751;DHT22;37579;51.074;17.004;2023-07-31T15:29:28;26.40;50.20
39751;DHT22;37579;51.074;17.004;2023-07-31T15:31:54;26.40;49.80